Time;durP1;ratioP1;P1;durP2;ratioP2;P2;SDS_P1;SDS_P2;PMS_P1;PMS_P2;Temp;Humidity;BMP_temperature;BMP_pressure;BME280_temperature;BME280_humidity;BME280_pressure;Samples;Min_cycle;Max_cycle;Signal;HPM_P1;HPM_P2
2022/07/05 04:01:31;;;;;;;4.00;3.80;;;13.80;99.90;;;;;;5465216;23;20727;-67
2022/07/05 04:03:57;;;;;;;3.77;3.67;;;13.90;99.90;;;;;;4973118;28;20828;-68
2022/07/05 04:06:24;;;;;;;3.50;3.40;;;13.90;99.90;;;;;;4973168;28;20460;-68
2022/07/05 04:08:51;;;;;;;4.50;4.13;;;13.90;99.90;;;;;;4972993;28;20213;-68
2022/07/05 04:11:18;;;;;;;3.63;3.53;;;14.00;99.90;;;;;;4972783;28;20487;-68
2022/07/05 04:13:45;;;;;;;3.63;3.53;;;14.00;99.90;;;;;;4973291;28;20468;-67
2022/07/05 04:16:11;;;;;;;5.13;4.73;;;14.10;99.90;;;;;;4995028;23;20495;-68
2022/07/05 04:18:40;;;;;;;3.93;3.73;;;14.10;99.90;;;;;;4971824;28;20464;-68
2022/07/05 04:21:06;;;;;;;3.90;3.70;;;14.20;99.90;;;;;;4967436;28;20483;-68
2022/07/05 04:23:33;;;;;;;3.07;2.93;;;14.20;99.90;;;;;;4970005;28;20464;-68
2022/07/05 04:26:01;;;;;;;3.57;3.47;;;14.30;99.90;;;;;;4957562;28;20486;-68
2022/07/05 04:28:29;;;;;;;2.80;2.77;;;14.50;99.90;;;;;;4972257;28;20460;-68
2022/07/05 04:30:56;;;;;;;2.70;2.60;;;15.30;99.90;;;;;;4969583;28;20468;-68
2022/07/05 04:33:23;;;;;;;2.60;2.50;;;16.20;99.90;;;;;;4971717;28;20467;-67
2022/07/05 04:35:51;;;;;;;2.67;2.47;;;17.10;99.90;;;;;;4971760;28;20495;-68
2022/07/05 04:38:17;;;;;;;2.57;2.47;;;17.90;99.90;;;;;;4971709;28;20468;-68
2022/07/05 04:40:44;;;;;;;2.20;2.10;;;18.60;99.90;;;;;;4971308;28;20470;-68
2022/07/05 04:43:11;;;;;;;2.43;2.33;;;19.20;99.90;;;;;;4971335;28;20846;-68
2022/07/05 04:45:38;;;;;;;3.27;1.97;;;19.80;99.90;;;;;;4972007;28;20510;-68
2022/07/05 04:48:05;;;;;;;2.17;2.03;;;20.20;99.90;;;;;;4971629;28;20813;-68
2022/07/05 04:50:32;;;;;;;2.50;2.30;;;20.60;99.90;;;;;;4971893;28;20463;-68
2022/07/05 04:53:00;;;;;;;2.20;2.10;;;20.90;99.90;;;;;;4971864;28;20837;-68
2022/07/05 04:55:27;;;;;;;2.13;2.00;;;21.20;99.90;;;;;;4971569;28;20487;-68
2022/07/05 04:57:53;;;;;;;2.07;1.97;;;21.70;99.90;;;;;;4971222;28;20467;-68
2022/07/05 05:00:20;;;;;;;2.10;2.10;;;22.10;99.90;;;;;;4971865;28;20473;-68
2022/07/05 05:02:47;;;;;;;2.30;2.20;;;22.40;99.90;;;;;;4971286;28;20477;-68
2022/07/05 05:05:14;;;;;;;2.20;2.10;;;22.60;99.90;;;;;;4968930;28;20991;-68
2022/07/05 05:07:43;;;;;;;1.87;1.77;;;22.80;99.90;;;;;;4968548;28;20479;-68
2022/07/05 05:10:12;;;;;;;2.23;2.10;;;23.30;99.90;;;;;;4963460;28;20464;-68
2022/07/05 05:12:39;;;;;;;2.50;2.00;;;23.50;99.90;;;;;;4971134;28;20472;-68
2022/07/05 05:15:09;;;;;;;2.27;2.07;;;23.60;99.90;;;;;;4970992;28;20495;-68
2022/07/05 05:17:37;;;;;;;1.87;1.77;;;23.70;99.90;;;;;;4971132;28;20543;-66
2022/07/05 05:20:06;;;;;;;2.43;2.33;;;23.80;99.90;;;;;;4969937;28;20505;-68
2022/07/05 05:22:33;;;;;;;2.23;2.13;;;24.10;99.90;;;;;;4974986;28;20527;-66
2022/07/05 05:25:00;;;;;;;1.40;1.30;;;24.00;99.90;;;;;;4974855;28;20470;-67
2022/07/05 05:27:28;;;;;;;3.97;2.10;;;23.90;99.90;;;;;;4974676;28;20544;-67
2022/07/05 05:29:55;;;;;;;1.83;1.73;;;24.20;99.90;;;;;;4974542;28;20490;-67
2022/07/05 05:32:21;;;;;;;1.40;1.20;;;24.00;99.90;;;;;;4974695;28;20464;-66
2022/07/05 05:34:48;;;;;;;1.87;1.80;;;24.10;99.90;;;;;;4974940;28;20933;-66
2022/07/05 05:37:15;;;;;;;1.83;1.70;;;24.00;99.90;;;;;;4974671;28;20493;-66
2022/07/05 05:39:41;;;;;;;4.30;1.77;;;24.10;99.90;;;;;;4974431;28;20547;-67
2022/07/05 05:42:09;;;;;;;1.40;1.40;;;24.30;99.90;;;;;;4974846;28;20473;-67
2022/07/05 05:44:37;;;;;;;1.37;1.37;;;24.60;99.90;;;;;;4974466;28;20468;-67
2022/07/05 05:47:04;;;;;;;1.67;1.57;;;24.70;99.90;;;;;;4974634;28;21047;-66
2022/07/05 05:49:30;;;;;;;1.90;1.80;;;24.70;99.90;;;;;;4973693;28;20555;-67
2022/07/05 05:51:57;;;;;;;3.03;2.40;;;24.80;99.90;;;;;;4973576;28;20462;-66
2022/07/05 05:54:24;;;;;;;1.60;1.50;;;24.70;99.90;;;;;;4965299;28;20467;-66
2022/07/05 05:56:50;;;;;;;1.53;1.43;;;24.20;99.90;;;;;;4973564;28;20600;-67
2022/07/05 05:59:17;;;;;;;1.80;1.70;;;24.20;99.90;;;;;;4974082;28;20469;-67
2022/07/05 06:01:45;;;;;;;1.23;1.23;;;24.40;99.90;;;;;;4971770;28;20476;-66
2022/07/05 06:04:12;;;;;;;1.80;1.60;;;24.40;99.90;;;;;;4958921;28;20468;-67
2022/07/05 06:06:38;;;;;;;1.33;1.33;;;24.70;99.90;;;;;;4967007;28;20506;-66
2022/07/05 06:09:05;;;;;;;2.93;1.40;;;25.00;99.90;;;;;;4964207;28;20469;-66
2022/07/05 06:11:32;;;;;;;1.00;1.00;;;25.10;99.90;;;;;;4955076;28;20467;-66
2022/07/05 06:13:59;;;;;;;2.20;1.17;;;25.30;99.90;;;;;;4954698;28;20475;-66
2022/07/05 06:16:25;;;;;;;1.47;1.10;;;25.60;99.90;;;;;;4963957;28;21014;-66
2022/07/05 06:18:53;;;;;;;1.43;1.40;;;26.00;99.40;;;;;;4971523;28;20946;-66
2022/07/05 06:21:20;;;;;;;1.70;1.23;;;26.20;98.20;;;;;;4967749;28;20832;-66
2022/07/05 06:23:46;;;;;;;1.63;1.53;;;26.60;97.20;;;;;;4973572;28;20470;-66
2022/07/05 06:26:13;;;;;;;2.00;1.20;;;26.60;96.70;;;;;;4965119;28;20475;-67
2022/07/05 06:28:40;;;;;;;1.27;1.27;;;26.70;96.40;;;;;;4973702;28;20465;-67
2022/07/05 06:31:07;;;;;;;2.17;1.43;;;26.80;96.10;;;;;;4970809;28;20542;-67
2022/07/05 06:33:33;;;;;;;1.43;1.33;;;26.80;95.70;;;;;;4972071;28;20466;-67
2022/07/05 06:36:01;;;;;;;2.23;0.97;;;27.10;96.00;;;;;;4973069;28;20491;-67
2022/07/05 06:38:28;;;;;;;1.30;1.20;;;27.40;94.20;;;;;;4973239;28;20461;-67
2022/07/05 06:40:56;;;;;;;1.20;1.10;;;27.30;93.80;;;;;;4966116;28;20223;-67
2022/07/05 06:43:23;;;;;;;1.40;1.30;;;27.30;94.10;;;;;;4964145;28;20955;-67
2022/07/05 06:45:50;;;;;;;2.30;1.27;;;27.50;93.60;;;;;;4954580;28;20494;-67
2022/07/05 06:48:16;;;;;;;1.13;1.13;;;27.60;92.90;;;;;;4954191;28;20541;-67
2022/07/05 06:50:44;;;;;;;1.27;1.23;;;28.10;92.10;;;;;;4964363;28;20463;-67
2022/07/05 06:53:13;;;;;;;1.93;1.10;;;28.20;91.20;;;;;;4973682;28;20546;-66
2022/07/05 06:55:44;;;;;;;1.20;0.80;;;27.90;90.30;;;;;;4972285;28;20576;-67
2022/07/05 06:58:11;;;;;;;1.63;1.00;;;27.90;90.20;;;;;;4966822;28;20947;-67
2022/07/05 07:00:39;;;;;;;0.83;0.83;;;28.10;89.50;;;;;;4954128;28;21027;-67
2022/07/05 07:03:05;;;;;;;0.97;0.97;;;28.40;88.00;;;;;;4954114;28;20468;-67
2022/07/05 07:05:32;;;;;;;2.10;0.80;;;28.50;86.00;;;;;;4967937;28;20869;-67
2022/07/05 07:10:44;;;;;;;1.00;1.00;;;27.50;87.30;;;;;;4958621;28;20462;-66
2022/07/05 07:13:11;;;;;;;0.77;0.77;;;27.30;86.40;;;;;;4971609;28;21190;-66
2022/07/05 07:15:38;;;;;;;1.60;1.23;;;27.50;86.60;;;;;;4954278;28;20490;-67
2022/07/05 07:18:05;;;;;;;1.13;1.13;;;27.50;86.40;;;;;;4953558;28;20970;-66
2022/07/05 07:20:32;;;;;;;1.17;1.17;;;26.70;86.20;;;;;;4954007;28;20949;-66
2022/07/05 07:22:58;;;;;;;0.83;0.83;;;26.50;87.80;;;;;;4954320;28;20838;-66
2022/07/05 07:25:25;;;;;;;2.67;1.07;;;26.40;89.50;;;;;;4953958;28;20492;-66
2022/07/05 07:27:55;;;;;;;1.00;1.00;;;26.80;88.00;;;;;;4966475;28;20475;-66
2022/07/05 07:30:24;;;;;;;0.80;0.80;;;26.70;86.90;;;;;;4964357;28;20476;-66
2022/07/05 07:32:51;;;;;;;1.90;1.00;;;26.40;87.80;;;;;;4971451;28;20556;-66
2022/07/05 07:35:18;;;;;;;1.10;1.10;;;26.90;87.70;;;;;;4972581;28;20461;-66
2022/07/05 07:37:45;;;;;;;0.93;0.93;;;27.10;86.60;;;;;;4972717;28;20829;-66
2022/07/05 07:40:12;;;;;;;0.73;0.73;;;27.00;86.00;;;;;;4972454;28;20473;-65
2022/07/05 07:42:39;;;;;;;0.73;0.70;;;27.10;85.70;;;;;;4971277;28;20471;-64
2022/07/05 07:45:09;;;;;;;1.00;1.00;;;27.50;84.40;;;;;;4971627;28;20807;-65
2022/07/05 07:47:36;;;;;;;1.80;0.70;;;27.80;84.20;;;;;;4969321;28;20463;-67
2022/07/05 07:50:05;;;;;;;0.80;0.80;;;27.50;84.40;;;;;;4965095;28;20475;-65
2022/07/05 07:52:33;;;;;;;0.57;0.57;;;27.10;81.80;;;;;;4972453;28;20467;-65
2022/07/05 07:55:00;;;;;;;0.50;0.50;;;26.60;83.70;;;;;;4972513;28;20975;-65
2022/07/05 07:57:27;;;;;;;0.83;0.83;;;25.90;84.00;;;;;;4972117;28;20489;-65
2022/07/05 07:59:54;;;;;;;0.70;0.70;;;25.40;83.50;;;;;;4970078;28;20471;-65
2022/07/05 08:02:22;;;;;;;0.80;0.80;;;25.00;85.60;;;;;;4971514;28;20468;-65
2022/07/05 08:04:49;;;;;;;0.70;0.70;;;24.90;84.90;;;;;;4971203;28;20933;-65
2022/07/05 08:07:17;;;;;;;0.80;0.80;;;25.30;84.60;;;;;;4971930;28;20484;-65
2022/07/05 08:09:44;;;;;;;0.83;0.70;;;25.70;84.70;;;;;;4963107;28;20942;-65
2022/07/05 08:12:11;;;;;;;2.00;0.70;;;26.00;81.20;;;;;;4967523;28;20468;-65
2022/07/05 08:14:37;;;;;;;0.60;0.60;;;25.00;81.60;;;;;;4972554;28;20479;-66
2022/07/05 08:17:07;;;;;;;1.60;0.60;;;24.30;83.30;;;;;;4970851;28;20496;-66
2022/07/05 08:22:21;;;;;;;0.50;0.50;;;24.00;87.60;;;;;;4953270;29;20481;-65
2022/07/05 08:24:47;;;;;;;0.70;0.70;;;25.10;86.00;;;;;;4954764;28;20477;-66
2022/07/05 08:27:14;;;;;;;0.80;0.80;;;25.90;82.20;;;;;;4971589;28;20492;-66
2022/07/05 08:29:41;;;;;;;0.97;0.47;;;25.60;80.70;;;;;;4971907;28;20973;-66
2022/07/05 08:32:09;;;;;;;0.67;0.60;;;25.30;81.80;;;;;;4971285;28;20473;-66
2022/07/05 08:34:37;;;;;;;1.33;1.23;;;24.40;82.30;;;;;;4968608;28;20502;-66
2022/07/05 08:37:04;;;;;;;0.83;0.83;;;23.90;84.60;;;;;;4972165;28;20492;-66
2022/07/05 08:39:31;;;;;;;0.67;0.67;;;23.40;86.10;;;;;;4971506;28;20920;-66
2022/07/05 08:41:59;;;;;;;0.73;0.50;;;23.50;87.70;;;;;;4969486;28;20475;-66
2022/07/05 08:44:29;;;;;;;0.73;0.50;;;23.90;86.40;;;;;;4971812;28;20558;-66
2022/07/05 08:46:57;;;;;;;0.60;0.60;;;24.50;82.70;;;;;;4971735;28;21019;-66
2022/07/05 08:49:27;;;;;;;1.73;1.00;;;24.60;81.70;;;;;;4968621;28;20583;-66
2022/07/05 08:51:56;;;;;;;0.53;0.53;;;24.30;81.50;;;;;;4967095;28;20474;-66
2022/07/05 08:54:24;;;;;;;0.70;0.70;;;24.20;83.00;;;;;;4963500;28;20790;-66
2022/07/05 08:56:52;;;;;;;0.67;0.67;;;24.30;82.50;;;;;;4974885;28;20492;-66
2022/07/05 08:59:19;;;;;;;0.97;0.53;;;23.90;80.80;;;;;;4975179;28;20490;-66
2022/07/05 09:01:47;;;;;;;1.40;0.50;;;24.00;82.20;;;;;;4975104;28;20483;-65
2022/07/05 09:04:15;;;;;;;0.50;0.50;;;24.30;80.80;;;;;;4974395;28;20533;-66
2022/07/05 09:06:43;;;;;;;1.13;1.00;;;24.50;79.70;;;;;;4971266;28;21064;-66
2022/07/05 09:09:11;;;;;;;1.90;0.70;;;24.90;80.00;;;;;;4975668;28;20467;-66
2022/07/05 09:11:40;;;;;;;0.60;0.60;;;25.10;79.60;;;;;;4967220;28;20504;-66
2022/07/05 09:14:18;;;;;;;1.43;0.50;;;25.40;78.50;;;;;;4956026;28;20834;-66
2022/07/05 09:16:45;;;;;;;0.67;0.50;;;25.30;78.20;;;;;;4964418;28;20493;-66
2022/07/05 09:19:11;;;;;;;0.40;0.40;;;25.40;77.30;;;;;;4974868;28;20466;-67
2022/07/05 09:21:38;;;;;;;0.60;0.60;;;25.10;76.00;;;;;;4974869;28;20470;-67
2022/07/05 09:24:06;;;;;;;0.83;0.83;;;25.00;77.40;;;;;;4973431;28;20478;-67
2022/07/05 09:26:36;;;;;;;1.30;0.60;;;24.90;77.60;;;;;;4974309;28;20771;-67
2022/07/05 09:29:04;;;;;;;0.50;0.50;;;24.90;75.80;;;;;;4967047;28;20472;-67
2022/07/05 09:31:32;;;;;;;0.80;0.70;;;25.10;76.80;;;;;;4973122;28;20475;-67
2022/07/05 09:34:06;;;;;;;0.57;0.57;;;25.30;77.60;;;;;;4973464;28;20482;-67
2022/07/05 09:36:49;;;;;;;0.50;0.50;;;25.10;76.80;;;;;;4968351;28;20498;-67
2022/07/05 09:39:16;;;;;;;0.30;0.30;;;24.80;76.90;;;;;;4971398;28;20472;-67
2022/07/05 09:41:44;;;;;;;0.50;0.50;;;24.30;77.70;;;;;;4973735;28;20815;-67
2022/07/05 09:44:11;;;;;;;0.60;0.60;;;23.90;77.40;;;;;;4967990;28;20468;-67
2022/07/05 09:46:37;;;;;;;0.60;0.60;;;23.50;78.90;;;;;;4955526;28;21012;-67
2022/07/05 09:49:05;;;;;;;0.60;0.60;;;23.20;79.40;;;;;;4955225;28;20465;-67
2022/07/05 09:51:48;;;;;;;0.70;0.70;;;23.20;81.00;;;;;;4955503;28;20468;-67
2022/07/05 09:54:15;;;;;;;0.60;0.60;;;23.40;80.50;;;;;;4955871;28;20535;-67
2022/07/05 09:56:47;;;;;;;0.50;0.50;;;23.60;80.00;;;;;;4956078;28;20859;-67
2022/07/05 09:59:16;;;;;;;0.70;0.50;;;23.70;79.30;;;;;;4974204;28;20993;-67
2022/07/05 10:01:43;;;;;;;0.73;0.67;;;23.70;79.30;;;;;;4973837;28;20530;-67
2022/07/05 10:04:10;;;;;;;0.70;0.70;;;23.80;80.00;;;;;;4973932;28;20463;-67
2022/07/05 10:06:37;;;;;;;0.43;0.43;;;23.80;79.10;;;;;;4974594;28;20479;-67
2022/07/05 10:09:04;;;;;;;1.63;0.70;;;24.20;77.90;;;;;;4971157;28;20508;-67
2022/07/05 10:11:32;;;;;;;0.93;0.93;;;24.30;77.10;;;;;;4973764;28;20869;-67
2022/07/05 10:14:04;;;;;;;1.17;0.67;;;24.10;77.10;;;;;;4972109;28;20483;-67
2022/07/05 10:16:31;;;;;;;0.50;0.50;;;23.70;77.60;;;;;;4987407;23;20501;-67
2022/07/05 10:18:58;;;;;;;0.77;0.53;;;23.40;78.50;;;;;;4988282;28;20832;-67
2022/07/05 10:21:26;;;;;;;0.70;0.70;;;23.30;78.90;;;;;;4975892;28;20468;-67
2022/07/05 10:23:53;;;;;;;0.60;0.60;;;23.30;80.20;;;;;;4975033;28;21015;-67
2022/07/05 10:26:21;;;;;;;0.47;0.47;;;23.30;80.20;;;;;;4992942;28;20537;-66
2022/07/05 10:28:52;;;;;;;0.60;0.60;;;23.40;80.20;;;;;;4985554;28;20541;-66
2022/07/05 10:31:20;;;;;;;0.77;0.60;;;23.40;79.40;;;;;;4977651;28;20476;-67
2022/07/05 10:33:47;;;;;;;0.77;0.77;;;23.30;79.70;;;;;;4974376;28;20463;-67
2022/07/05 10:36:14;;;;;;;2.00;0.70;;;23.10;80.90;;;;;;4975252;28;20460;-66
2022/07/05 10:38:43;;;;;;;0.80;0.80;;;23.00;82.00;;;;;;4974825;28;21023;-67
2022/07/05 10:41:13;;;;;;;0.60;0.57;;;23.20;82.80;;;;;;4989618;28;20463;-67
2022/07/05 10:43:40;;;;;;;0.53;0.53;;;23.30;81.20;;;;;;4993924;28;20471;-67
2022/07/05 10:46:07;;;;;;;0.97;0.60;;;23.40;78.60;;;;;;4976273;28;20474;-66
2022/07/05 10:48:36;;;;;;;0.90;0.90;;;23.40;79.00;;;;;;4976522;28;20510;-66
2022/07/05 10:51:15;;;;;;;0.70;0.70;;;23.40;80.10;;;;;;4985630;28;20838;-66
2022/07/05 10:54:01;;;;;;;0.67;0.67;;;23.50;80.50;;;;;;4989718;28;20598;-67
2022/07/05 10:56:28;;;;;;;0.70;0.70;;;23.60;82.70;;;;;;4974453;28;20483;-67
2022/07/05 10:59:06;;;;;;;0.70;0.70;;;23.50;81.10;;;;;;4974010;28;20471;-66
2022/07/05 11:01:37;;;;;;;0.73;0.70;;;23.40;82.70;;;;;;4968387;28;20858;-66
2022/07/05 11:04:34;;;;;;;1.00;0.70;;;23.30;82.50;;;;;;4973698;28;20460;-65
2022/07/05 11:07:00;;;;;;;0.53;0.53;;;23.60;81.80;;;;;;4973633;28;20507;-66
2022/07/05 11:09:28;;;;;;;0.93;0.87;;;23.60;79.00;;;;;;4973760;28;20463;-68
2022/07/05 11:12:13;;;;;;;0.60;0.60;;;23.70;80.30;;;;;;4974127;28;20460;-68
2022/07/05 11:14:45;;;;;;;0.70;0.70;;;23.90;79.30;;;;;;4973489;28;20543;-68
2022/07/05 11:17:25;;;;;;;0.73;0.73;;;23.90;79.10;;;;;;4979998;28;20530;-68
2022/07/05 11:20:12;;;;;;;0.77;0.60;;;23.70;79.30;;;;;;4965929;28;20474;-68
2022/07/05 11:22:41;;;;;;;0.60;0.60;;;23.60;81.10;;;;;;4973624;28;20464;-68
2022/07/05 11:25:11;;;;;;;0.70;0.70;;;23.50;81.10;;;;;;4973079;28;20468;-68
2022/07/05 11:27:58;;;;;;;0.70;0.70;;;23.60;81.50;;;;;;4990902;28;20475;-67
2022/07/05 11:30:26;;;;;;;0.60;0.60;;;23.60;82.10;;;;;;4980672;28;20518;-67
2022/07/05 11:32:53;;;;;;;0.70;0.70;;;23.70;81.80;;;;;;4972491;28;20459;-67
2022/07/05 11:35:21;;;;;;;0.70;0.70;;;23.50;81.40;;;;;;4969544;28;20463;-67
2022/07/05 11:38:03;;;;;;;0.80;0.80;;;23.30;81.10;;;;;;4972520;28;20996;-67
2022/07/05 11:40:31;;;;;;;1.17;0.90;;;23.10;80.80;;;;;;4973415;28;20460;-66
2022/07/05 11:42:59;;;;;;;0.97;0.97;;;23.00;81.10;;;;;;4972353;28;20487;-66
2022/07/05 11:45:27;;;;;;;0.80;0.80;;;23.10;81.50;;;;;;4962241;28;20472;-66
2022/07/05 11:47:58;;;;;;;0.67;0.67;;;23.20;79.80;;;;;;4972146;28;20480;-66
2022/07/05 11:50:32;;;;;;;1.03;0.63;;;23.30;80.30;;;;;;4972970;28;20506;-66
2022/07/05 11:53:00;;;;;;;1.20;1.20;;;23.40;80.10;;;;;;4972628;28;20490;-67
2022/07/05 11:55:28;;;;;;;0.60;0.60;;;23.60;82.50;;;;;;4986899;28;20463;-67
2022/07/05 11:57:55;;;;;;;0.43;0.43;;;23.70;80.50;;;;;;4987416;28;20487;-67
2022/07/05 12:00:32;;;;;;;0.70;0.70;;;23.70;77.70;;;;;;4969444;28;20585;-67
2022/07/05 12:02:59;;;;;;;0.60;0.60;;;23.80;78.60;;;;;;4983047;28;20784;-67
2022/07/05 12:05:32;;;;;;;0.63;0.63;;;23.80;79.00;;;;;;4991791;28;20454;-67
2022/07/05 12:07:59;;;;;;;1.90;0.90;;;23.80;78.60;;;;;;4977876;28;20480;-67
2022/07/05 12:13:10;;;;;;;0.90;0.90;;;23.80;78.50;;;;;;4983425;28;21063;-67
2022/07/05 12:15:39;;;;;;;0.80;0.80;;;23.70;77.50;;;;;;4970627;28;20461;-67
2022/07/05 12:18:08;;;;;;;0.50;0.50;;;23.80;79.10;;;;;;4972534;28;20506;-67
2022/07/05 12:20:36;;;;;;;0.50;0.50;;;24.00;78.00;;;;;;4971752;28;20482;-67
2022/07/05 12:23:03;;;;;;;0.83;0.83;;;24.10;78.30;;;;;;4973247;28;20555;-67
2022/07/05 12:25:32;;;;;;;0.50;0.50;;;24.30;78.20;;;;;;4991458;28;20466;-67
2022/07/05 12:28:00;;;;;;;1.37;0.63;;;24.50;77.40;;;;;;4982035;28;20542;-67
2022/07/05 12:30:30;;;;;;;0.63;0.63;;;24.60;78.00;;;;;;4980136;28;20545;-67
2022/07/05 12:32:59;;;;;;;0.80;0.73;;;24.50;76.30;;;;;;4971592;28;20467;-67
2022/07/05 12:35:31;;;;;;;0.80;0.70;;;24.40;76.70;;;;;;4972221;28;20846;-67
2022/07/05 12:38:03;;;;;;;0.70;0.70;;;24.40;76.50;;;;;;4972578;28;20495;-68
2022/07/05 12:40:30;;;;;;;0.80;0.80;;;24.30;77.20;;;;;;4971791;28;20468;-67
2022/07/05 12:43:05;;;;;;;0.70;0.70;;;24.30;77.20;;;;;;4971777;28;20540;-67
2022/07/05 12:45:33;;;;;;;0.77;0.70;;;24.20;76.70;;;;;;4972122;28;20498;-67
2022/07/05 12:48:03;;;;;;;0.83;0.70;;;24.20;77.50;;;;;;4966879;28;20484;-66
2022/07/05 12:50:44;;;;;;;0.87;0.87;;;24.20;78.90;;;;;;4971537;28;20464;-67
2022/07/05 12:58:49;;;;;;;0.73;0.73;;;24.30;78.10;;;;;;4970948;28;20486;-68
2022/07/05 13:01:20;;;;;;;0.90;0.90;;;23.90;78.00;;;;;;4971676;28;20462;-68
2022/07/05 13:04:04;;;;;;;0.70;0.70;;;23.90;79.70;;;;;;4975555;28;20468;-67
2022/07/05 13:06:44;;;;;;;3.73;1.10;;;23.90;79.70;;;;;;4978674;28;20507;-67
2022/07/05 13:09:13;;;;;;;2.90;1.03;;;23.90;79.30;;;;;;4976804;28;20940;-65
2022/07/05 13:11:40;;;;;;;1.90;1.00;;;24.10;79.10;;;;;;4971112;28;20570;-66
2022/07/05 13:14:07;;;;;;;0.70;0.70;;;24.30;79.30;;;;;;4977509;28;20459;-66
2022/07/05 13:16:34;;;;;;;3.80;0.90;;;24.30;78.00;;;;;;4991289;28;20497;-70
2022/07/05 13:19:12;;;;;;;1.17;0.70;;;24.10;77.70;;;;;;4983018;28;20491;-66
2022/07/05 13:21:39;;;;;;;2.63;0.70;;;24.20;79.60;;;;;;4971590;28;20483;-67
2022/07/05 13:24:07;;;;;;;0.77;0.77;;;24.30;78.80;;;;;;4971530;28;20472;-67
2022/07/05 13:26:34;;;;;;;0.70;0.70;;;24.20;77.50;;;;;;4971255;28;20880;-65
2022/07/05 13:29:00;;;;;;;1.53;0.90;;;24.00;76.80;;;;;;4972488;28;20455;-66
2022/07/05 13:31:30;;;;;;;0.70;0.70;;;24.10;77.50;;;;;;4969841;28;20474;-67
2022/07/05 13:33:57;;;;;;;0.97;0.70;;;24.20;77.30;;;;;;4973428;28;20458;-67
2022/07/05 13:36:26;;;;;;;0.80;0.80;;;24.30;77.50;;;;;;4970360;28;20494;-67
2022/07/05 13:38:52;;;;;;;0.70;0.70;;;24.30;76.60;;;;;;4971800;28;20491;-67
2022/07/05 13:41:19;;;;;;;0.70;0.57;;;24.50;77.50;;;;;;4971989;28;20463;-67
2022/07/05 13:43:46;;;;;;;0.87;0.87;;;24.60;75.90;;;;;;4975497;28;20573;-66
2022/07/05 13:46:13;;;;;;;0.70;0.70;;;24.60;76.40;;;;;;4975969;28;20470;-66
2022/07/05 13:48:40;;;;;;;0.80;0.80;;;24.60;77.30;;;;;;4975362;28;20486;-67
2022/07/05 13:51:08;;;;;;;1.37;1.27;;;24.50;75.90;;;;;;4984327;28;20837;-66
2022/07/05 13:53:36;;;;;;;0.90;0.90;;;24.40;77.50;;;;;;4971602;28;21007;-67
2022/07/05 13:56:04;;;;;;;1.10;1.10;;;24.40;77.80;;;;;;4981410;28;20514;-66
2022/07/05 13:58:31;;;;;;;0.90;0.90;;;24.50;77.50;;;;;;4976083;28;20490;-66
2022/07/05 14:00:58;;;;;;;1.60;1.00;;;24.60;76.40;;;;;;4992923;28;20891;-67
2022/07/05 14:03:24;;;;;;;1.80;1.03;;;24.70;77.20;;;;;;4980975;28;20475;-66
2022/07/05 14:05:51;;;;;;;0.80;0.80;;;24.80;76.40;;;;;;4973217;28;20956;-66
2022/07/05 14:08:21;;;;;;;1.00;1.00;;;24.90;75.70;;;;;;4974412;28;20482;-66
2022/07/05 14:10:51;;;;;;;0.87;0.87;;;24.70;76.90;;;;;;4974608;28;21147;-66
2022/07/05 14:13:18;;;;;;;0.70;0.70;;;24.70;76.60;;;;;;4988682;28;20818;-66
2022/07/05 14:15:45;;;;;;;1.17;1.00;;;24.50;76.20;;;;;;4994364;28;20463;-67
2022/07/05 14:18:12;;;;;;;0.90;0.90;;;24.40;76.20;;;;;;4980357;28;20488;-67
2022/07/05 14:20:39;;;;;;;1.00;0.90;;;24.30;77.00;;;;;;4969636;28;20995;-66
2022/07/05 14:23:06;;;;;;;1.00;1.00;;;24.30;76.60;;;;;;4972203;28;20480;-67
2022/07/05 14:25:32;;;;;;;0.90;0.90;;;24.30;76.70;;;;;;4975382;28;20510;-67
2022/07/05 14:28:02;;;;;;;0.80;0.80;;;24.30;77.20;;;;;;4974717;28;20542;-67
2022/07/05 14:30:29;;;;;;;0.90;0.90;;;24.50;76.70;;;;;;4978285;28;20463;-67
2022/07/05 14:32:56;;;;;;;0.80;0.80;;;24.40;76.50;;;;;;4977766;28;20813;-67
2022/07/05 14:35:23;;;;;;;0.67;0.67;;;24.50;76.90;;;;;;4974944;28;20937;-67
2022/07/05 14:37:50;;;;;;;0.70;0.70;;;24.50;76.80;;;;;;4974662;28;20495;-67
2022/07/05 14:40:18;;;;;;;0.80;0.80;;;24.60;77.60;;;;;;4972286;28;20578;-68
2022/07/05 14:42:45;;;;;;;0.77;0.77;;;24.70;77.20;;;;;;4960372;28;20509;-67
2022/07/05 14:45:13;;;;;;;1.40;0.87;;;24.60;77.40;;;;;;4996349;28;20463;-67
2022/07/05 14:47:39;;;;;;;0.60;0.60;;;24.60;78.20;;;;;;4993901;28;20478;-67
2022/07/05 14:50:06;;;;;;;1.20;0.70;;;24.50;78.40;;;;;;4974359;28;20871;-68
2022/07/05 14:52:33;;;;;;;0.90;0.90;;;24.50;78.00;;;;;;4974837;28;20957;-69
2022/07/05 14:55:00;;;;;;;0.87;0.87;;;24.40;78.20;;;;;;4979650;28;20464;-68
2022/07/05 14:57:27;;;;;;;1.70;0.87;;;24.30;78.30;;;;;;4971396;28;20538;-67
2022/07/05 14:59:53;;;;;;;1.00;1.00;;;24.10;79.20;;;;;;4973667;28;20881;-68
2022/07/05 15:02:21;;;;;;;1.00;1.00;;;23.90;79.50;;;;;;4974868;28;20471;-67
2022/07/05 15:04:48;;;;;;;1.00;1.00;;;24.00;80.20;;;;;;4988979;28;20469;-68
2022/07/05 15:07:15;;;;;;;1.07;1.03;;;23.90;80.00;;;;;;4992095;28;20862;-68
2022/07/05 15:09:42;;;;;;;0.90;0.90;;;24.20;79.90;;;;;;4979002;28;20462;-68
2022/07/05 15:12:10;;;;;;;0.87;0.87;;;24.40;80.70;;;;;;4972567;28;20808;-68
2022/07/05 15:14:36;;;;;;;1.83;0.90;;;24.60;80.50;;;;;;4973678;28;20817;-68
2022/07/05 15:17:03;;;;;;;1.80;1.20;;;24.50;80.80;;;;;;4973292;28;20491;-68
2022/07/05 15:19:31;;;;;;;0.97;0.97;;;24.30;80.50;;;;;;4988027;28;20479;-68
2022/07/05 15:21:58;;;;;;;1.30;1.30;;;24.20;81.10;;;;;;4973761;28;20501;-68
2022/07/05 15:24:26;;;;;;;1.27;1.27;;;24.00;80.90;;;;;;4968932;28;20560;-67
2022/07/05 15:26:53;;;;;;;3.17;1.10;;;23.80;80.20;;;;;;4968994;28;20487;-67
2022/07/05 15:29:20;;;;;;;1.53;1.00;;;23.60;80.30;;;;;;4971949;23;20833;-66
2022/07/05 15:31:47;;;;;;;2.00;1.20;;;23.40;86.00;;;;;;4967677;28;20484;-67
2022/07/05 15:34:13;;;;;;;1.13;1.13;;;23.10;88.60;;;;;;4971481;28;20468;-66
2022/07/05 15:36:41;;;;;;;2.23;0.80;;;22.80;90.00;;;;;;4972649;28;21076;-66
2022/07/05 15:39:08;;;;;;;1.33;1.03;;;22.60;90.60;;;;;;4947222;28;20480;-66
2022/07/05 15:41:36;;;;;;;1.00;0.80;;;22.70;91.00;;;;;;4952499;29;20480;-66
2022/07/05 15:44:03;;;;;;;0.87;0.87;;;22.80;91.40;;;;;;4941124;28;20477;-68
2022/07/05 15:46:59;;;;;;;2.03;1.00;;;23.20;91.30;;;;;;4952194;28;21012;-66
2022/07/05 15:49:17;;;;;;;1.00;0.90;;;23.50;90.70;;;;;;4950997;28;20460;-66
2022/07/05 15:51:46;;;;;;;0.70;0.70;;;23.60;90.50;;;;;;4940633;28;20472;-68
2022/07/05 15:54:13;;;;;;;0.97;0.97;;;23.60;90.80;;;;;;4951391;28;20476;-66
2022/07/05 15:56:40;;;;;;;0.80;0.80;;;23.50;90.70;;;;;;4954278;28;20522;-66
2022/07/05 15:59:07;;;;;;;1.17;1.03;;;23.10;91.20;;;;;;4956378;28;21094;-67
2022/07/05 16:01:34;;;;;;;2.27;1.10;;;22.90;91.40;;;;;;4962074;28;20468;-66
2022/07/05 16:04:01;;;;;;;2.63;0.97;;;22.70;91.40;;;;;;4943058;28;20511;-67
2022/07/05 16:06:27;;;;;;;1.07;1.07;;;22.50;91.70;;;;;;4943157;29;21072;-67
2022/07/05 16:08:55;;;;;;;1.70;1.40;;;22.40;92.10;;;;;;4933510;29;20469;-66
2022/07/05 16:11:22;;;;;;;1.90;1.50;;;22.40;92.40;;;;;;4946392;28;20480;-66
2022/07/05 16:13:49;;;;;;;3.83;1.50;;;22.30;92.20;;;;;;4959677;28;20560;-66
2022/07/05 16:16:16;;;;;;;3.37;1.50;;;22.30;92.40;;;;;;4951462;29;20519;-66
2022/07/05 16:18:44;;;;;;;2.00;1.60;;;22.30;92.80;;;;;;4933596;29;20489;-68
2022/07/05 16:21:13;;;;;;;1.43;1.13;;;22.30;93.40;;;;;;4947905;29;20978;-66
2022/07/05 16:23:41;;;;;;;1.10;1.10;;;22.20;93.20;;;;;;4952568;29;20556;-69
2022/07/05 16:26:11;;;;;;;2.80;1.37;;;22.10;93.40;;;;;;4953981;28;20479;-68
2022/07/05 16:28:39;;;;;;;2.30;1.77;;;22.00;93.70;;;;;;4946410;28;20479;-69
2022/07/05 16:31:08;;;;;;;1.40;1.40;;;21.90;94.20;;;;;;4945235;28;20483;-68
2022/07/05 16:33:38;;;;;;;2.13;1.17;;;22.00;94.70;;;;;;4943857;28;20481;-69
2022/07/05 16:36:05;;;;;;;1.43;1.30;;;22.30;94.90;;;;;;4956627;28;20954;-69
2022/07/05 16:38:31;;;;;;;1.13;1.13;;;22.50;95.00;;;;;;4950192;29;20567;-67
2022/07/05 16:40:58;;;;;;;1.30;1.23;;;22.70;94.50;;;;;;4940130;29;20462;-69
2022/07/05 16:43:26;;;;;;;1.13;1.03;;;22.60;94.80;;;;;;4932852;28;20488;-68
2022/07/05 16:45:53;;;;;;;1.10;1.00;;;22.40;95.10;;;;;;4951916;28;20464;-70
2022/07/05 16:48:21;;;;;;;1.20;1.07;;;22.10;95.30;;;;;;4949103;28;21079;-69
2022/07/05 16:50:48;;;;;;;1.40;1.40;;;21.90;95.80;;;;;;4950040;29;20464;-67
2022/07/05 16:53:15;;;;;;;3.00;1.10;;;21.80;96.20;;;;;;4950432;29;20476;-68
2022/07/05 16:55:42;;;;;;;3.10;1.10;;;21.50;96.70;;;;;;4947072;29;20465;-68
2022/07/05 16:58:09;;;;;;;1.33;0.90;;;21.40;97.30;;;;;;4944425;28;20858;-68
2022/07/05 17:00:37;;;;;;;1.60;1.60;;;21.30;97.60;;;;;;4959928;28;20840;-68
2022/07/05 17:03:03;;;;;;;1.50;1.40;;;21.20;98.20;;;;;;4947151;28;20484;-68
2022/07/05 17:05:31;;;;;;;1.60;1.20;;;21.10;98.70;;;;;;4934158;29;21002;-67
2022/07/05 17:07:57;;;;;;;1.43;1.43;;;21.10;98.80;;;;;;4933321;29;20577;-69